KPVJ

Pauls Valley Municipal Airport

Pauls Valley, Oklahoma, USA
METAR KPVJ 220235Z AUTO 00000KT 10SM CLR 22/22 A2998 RMK AO2 T02170217
Observed Flight Rules
May-22 @ 02:35 UTC (5 minutes ago) Visual Flight Rules
Visibility Clouds
10 miles
  • Clear skies
Temperatures Readings
Current 22°C / 72°F
Dewpoint 22°C / 72°F
Humidity 100%
Altimeter 29.98" Hg
Pressure 1015 hPa
Elevation 295
METAR KPVJ 220235Z AUTO 00000KT 10SM CLR 22/22 A2998 RMK AO2 T02170217
Observed Flight Rules
May-22 @ 02:35 UTC
(5 minutes ago)
VFR
Clouds
  • Clear skies
Temperature Dewpoint
22°C / 72°F 22°C / 72°F
Humidity Altimeter Pressure
100% 29.98" Hg 1015 hPa